Abliani — 9HA4031 — position and weather

sailwx.info

Track history (hours):
 
Tides and Currents Weather Stations Pressure Air Temp Water Temp Dewpoint Dewpoint Depression Visibility Wind Speed Wind Dir Waves Ship Positions

Abliani

Last reported at 2018-Feb-18 03:30 UTC. Time now 2018-Feb-20 13:42 UTC.
Position N 39°00' E 003°07'.

Length 250 m; draft 8.5 m.

Type: Ship (hazmat cat A). MMSI: 256903000.

Date/timePositionNaut miles runAvg speedWind from/ knotsBaromVisibWave heightAir tempDewpointWater temp
2018-Feb-18 03:30N 39°00' E 003°07'611.2
2018-Feb-18 02:59N 39°01' E 002°60'611.3
2018-Feb-18 02:28N 39°03' E 002°52'611.8
2018-Feb-18 02:00N 39°05' E 002°46'611.9
2018-Feb-18 01:31N 39°07' E 002°39'611.8
2018-Feb-18 00:59N 39°09' E 002°31'  
2018-Feb-15 09:57N 39°17' E 002°11'612.6
2018-Feb-15 09:30N 39°15' E 002°18'713.0
2018-Feb-15 09:00N 39°11' E 002°26'612.7
2018-Feb-15 08:30N 39°09' E 002°33'712.5
2018-Feb-15 07:59N 39°06' E 002°41'712.4
2018-Feb-15 07:24N 39°04' E 002°49'512.4
2018-Feb-15 07:00N 39°02' E 002°55'612.6
2018-Feb-15 06:30N 39°01' E 003°03'812.6
2018-Feb-15 05:54N 38°59' E 003°13'512.8
2018-Feb-15 05:29N 38°58' E 003°19'51311.7
2018-Feb-13 09:42N 36°41' E 013°45'210.2
2018-Feb-13 09:30N 36°41' E 013°47'610.1
2018-Feb-13 08:56N 36°40' E 013°54'510.1
2018-Feb-13 08:26N 36°39' E 014°01'510.2
2018-Feb-13 08:00N 36°38' E 014°06'5 9.9
2018-Feb-13 07:30N 36°38' E 014°12'4 7.3
2018-Feb-13 07:00N 36°38' E 014°17'2 3.8
2018-Feb-13 06:30N 36°37' E 014°19'3 3.6
2018-Feb-13 05:48N 36°35' E 014°20'13 3.3
2018-Feb-13 02:00N 36°28' E 014°33'  
2018-Feb-10 11:30N 35°39' E 030°18'1813.7
2018-Feb-10 10:10N 35°41' E 030°40'213.6
2018-Feb-10 09:59N 35°41' E 030°43'813.5
2018-Feb-10 09:25N 35°42' E 030°53'3313.6
2018-Feb-10 07:00N 35°47' E 031°33'713.4
2018-Feb-10 06:30N 35°48' E 031°41'1813.5
2018-Feb-10 05:10N 35°50' E 032°03'213.5
2018-Feb-10 05:00N 35°50' E 032°06'914.0
2018-Feb-10 04:23N 35°51' E 032°16'  
Track history (hours):
 
Tides and Currents Weather Stations Pressure Air Temp Water Temp Dewpoint Dewpoint Depression Visibility Wind Speed Wind Dir Waves Ship Positions

Abliani

Last reported at 2018-Feb-18 03:30 UTC. Time now 2018-Feb-20 13:42 UTC.
Position N 39°00' E 003°07'.

Length 250 m; draft 8.5 m.

Type: Ship (hazmat cat A). MMSI: 256903000.

Date/timePositionNaut miles runAvg speedWind from/ knotsBaromVisibWave heightAir tempDewpointWater temp
2018-Feb-18 03:30N 39°00' E 003°07'611.2
2018-Feb-18 02:59N 39°01' E 002°60'611.3
2018-Feb-18 02:28N 39°03' E 002°52'611.8
2018-Feb-18 02:00N 39°05' E 002°46'611.9
2018-Feb-18 01:31N 39°07' E 002°39'611.8
2018-Feb-18 00:59N 39°09' E 002°31'  
2018-Feb-15 09:57N 39°17' E 002°11'612.6
2018-Feb-15 09:30N 39°15' E 002°18'713.0
2018-Feb-15 09:00N 39°11' E 002°26'612.7
2018-Feb-15 08:30N 39°09' E 002°33'712.5
2018-Feb-15 07:59N 39°06' E 002°41'712.4
2018-Feb-15 07:24N 39°04' E 002°49'512.4
2018-Feb-15 07:00N 39°02' E 002°55'612.6
2018-Feb-15 06:30N 39°01' E 003°03'812.6
2018-Feb-15 05:54N 38°59' E 003°13'512.8
2018-Feb-15 05:29N 38°58' E 003°19'51311.7
2018-Feb-13 09:42N 36°41' E 013°45'210.2
2018-Feb-13 09:30N 36°41' E 013°47'610.1
2018-Feb-13 08:56N 36°40' E 013°54'510.1
2018-Feb-13 08:26N 36°39' E 014°01'510.2
2018-Feb-13 08:00N 36°38' E 014°06'5 9.9
2018-Feb-13 07:30N 36°38' E 014°12'4 7.3
2018-Feb-13 07:00N 36°38' E 014°17'2 3.8
2018-Feb-13 06:30N 36°37' E 014°19'3 3.6
2018-Feb-13 05:48N 36°35' E 014°20'13 3.3
2018-Feb-13 02:00N 36°28' E 014°33'  
2018-Feb-10 11:30N 35°39' E 030°18'1813.7
2018-Feb-10 10:10N 35°41' E 030°40'213.6
2018-Feb-10 09:59N 35°41' E 030°43'813.5
2018-Feb-10 09:25N 35°42' E 030°53'3313.6
2018-Feb-10 07:00N 35°47' E 031°33'713.4
2018-Feb-10 06:30N 35°48' E 031°41'1813.5
2018-Feb-10 05:10N 35°50' E 032°03'213.5
2018-Feb-10 05:00N 35°50' E 032°06'914.0
2018-Feb-10 04:23N 35°51' E 032°16'  

Dump ship's entire track history